createdAt,value
2017-09-04T00:01:33.262Z,50.30
2017-09-04T00:04:00.741Z,50.50
2017-09-04T00:06:28.229Z,50.70
2017-09-04T00:08:55.685Z,50.70
2017-09-04T00:11:23.142Z,50.90
2017-09-04T00:13:50.616Z,51.00
2017-09-04T00:16:18.071Z,51.20
2017-09-04T00:18:45.617Z,51.30
2017-09-04T00:21:13.074Z,51.40
2017-09-04T00:23:40.559Z,51.60
2017-09-04T00:26:08.018Z,51.60
2017-09-04T00:28:35.473Z,51.80
2017-09-04T00:31:02.950Z,51.90
2017-09-04T00:33:30.406Z,52.00
2017-09-04T00:35:57.891Z,52.20
2017-09-04T00:38:25.346Z,52.20
2017-09-04T00:40:52.842Z,52.30
2017-09-04T00:43:20.433Z,52.50
2017-09-04T00:45:47.889Z,52.50
2017-09-04T00:48:15.364Z,52.70
2017-09-04T00:50:42.822Z,52.80
2017-09-04T00:53:10.306Z,52.80
2017-09-04T00:55:37.761Z,52.90
2017-09-04T00:58:05.970Z,53.00
2017-09-04T01:00:33.455Z,53.00
2017-09-04T01:03:00.905Z,53.10
2017-09-04T01:05:28.380Z,53.40
2017-09-04T01:07:55.837Z,53.50
2017-09-04T01:10:23.322Z,53.60
2017-09-04T01:12:50.774Z,53.90
2017-09-04T01:15:18.229Z,54.00
2017-09-04T01:17:45.708Z,54.10
2017-09-04T01:20:13.186Z,54.20
2017-09-04T01:22:40.669Z,54.30
2017-09-04T01:25:08.255Z,54.30
2017-09-04T01:27:35.753Z,54.30
2017-09-04T01:30:03.202Z,54.30
2017-09-04T01:32:30.688Z,54.40
2017-09-04T01:34:58.149Z,54.40
2017-09-04T01:37:25.602Z,54.50
2017-09-04T01:39:53.162Z,54.60
2017-09-04T01:42:21.380Z,54.70
2017-09-04T01:44:48.901Z,54.70
2017-09-04T01:47:16.354Z,54.70
2017-09-04T01:49:43.811Z,54.80
2017-09-04T01:52:11.289Z,54.90
2017-09-04T01:54:38.762Z,55.00
2017-09-04T01:57:06.219Z,54.90
2017-09-04T01:59:33.694Z,55.00
2017-09-04T02:02:01.157Z,55.00
2017-09-04T02:04:28.621Z,54.90
2017-09-04T02:06:56.078Z,54.90
2017-09-04T02:09:23.558Z,54.80
2017-09-04T02:11:52.005Z,54.70
2017-09-04T02:14:19.462Z,54.60
2017-09-04T02:16:46.921Z,54.70
2017-09-04T02:19:14.418Z,54.70
2017-09-04T02:21:41.869Z,54.60
2017-09-04T02:24:09.330Z,54.50
2017-09-04T02:26:37.584Z,54.50
2017-09-04T02:29:05.035Z,54.40
2017-09-04T02:31:32.498Z,54.40
2017-09-04T02:33:59.982Z,54.40
2017-09-04T02:36:28.217Z,54.30
2017-09-04T02:38:55.669Z,54.30
2017-09-04T02:41:23.129Z,54.40
2017-09-04T02:43:50.617Z,54.40
2017-09-04T02:46:18.073Z,54.40
2017-09-04T02:48:45.533Z,54.40
2017-09-04T02:51:13.041Z,54.40
2017-09-04T02:53:40.490Z,54.50
2017-09-04T02:56:07.965Z,54.50
2017-09-04T02:58:35.451Z,54.60
2017-09-04T03:01:02.930Z,54.60
2017-09-04T03:03:30.384Z,54.70
2017-09-04T03:05:57.863Z,54.90
2017-09-04T03:08:25.318Z,54.70
2017-09-04T03:10:52.797Z,54.70
2017-09-04T03:13:20.249Z,54.70
2017-09-04T03:15:47.738Z,54.70
2017-09-04T03:18:15.189Z,54.60
2017-09-04T03:20:42.657Z,54.60
2017-09-04T03:23:10.134Z,54.60
2017-09-04T03:25:37.619Z,54.70
2017-09-04T03:28:05.065Z,54.70
2017-09-04T03:30:32.525Z,54.80
2017-09-04T03:33:00.010Z,54.90
2017-09-04T03:35:27.471Z,55.00
2017-09-04T03:37:54.925Z,55.00
2017-09-04T03:40:22.409Z,55.10
2017-09-04T03:42:49.865Z,55.10
2017-09-04T03:45:17.336Z,55.20
2017-09-04T03:47:44.810Z,55.30
2017-09-04T03:50:12.304Z,55.40
2017-09-04T03:52:39.768Z,55.40
2017-09-04T03:55:07.261Z,55.60
2017-09-04T03:57:34.721Z,55.40
2017-09-04T04:00:02.177Z,55.50
2017-09-04T04:02:29.652Z,55.50
2017-09-04T04:04:57.113Z,55.50
2017-09-04T04:07:24.583Z,55.60
2017-09-04T04:09:52.050Z,55.60
2017-09-04T04:12:19.537Z,55.70
2017-09-04T04:14:46.990Z,56.30
2017-09-04T04:17:14.453Z,55.80
2017-09-04T04:19:41.937Z,55.80
2017-09-04T04:22:09.392Z,55.80
2017-09-04T04:24:36.869Z,55.80
2017-09-04T04:27:04.332Z,55.90
2017-09-04T04:29:31.837Z,56.00
2017-09-04T04:32:00.085Z,56.10
2017-09-04T04:34:27.571Z,56.10
2017-09-04T04:36:55.030Z,56.20
2017-09-04T04:39:22.510Z,56.10
2017-09-04T04:41:49.978Z,56.20
2017-09-04T04:44:17.501Z,56.20
2017-09-04T04:46:44.967Z,56.20
2017-09-04T04:49:12.416Z,56.30
2017-09-04T04:51:39.912Z,56.40
2017-09-04T04:54:07.368Z,56.40
2017-09-04T04:56:34.824Z,56.40
2017-09-04T04:59:02.369Z,56.60
2017-09-04T05:01:29.845Z,56.70
2017-09-04T05:03:57.309Z,56.70
2017-09-04T05:06:24.786Z,56.70
2017-09-04T05:08:52.265Z,56.70
2017-09-04T05:11:19.754Z,56.70
2017-09-04T05:13:47.211Z,56.80
2017-09-04T05:16:14.662Z,56.80
2017-09-04T05:18:42.141Z,56.80
2017-09-04T05:21:09.599Z,56.80
2017-09-04T05:23:37.079Z,56.80
2017-09-04T05:26:04.559Z,56.90
2017-09-04T05:28:32.050Z,56.90
2017-09-04T05:30:59.549Z,56.90
2017-09-04T05:33:27.014Z,56.90
2017-09-04T05:35:54.477Z,57.40
2017-09-04T05:38:21.953Z,56.80
2017-09-04T05:40:49.439Z,56.80
2017-09-04T05:43:16.901Z,56.70
2017-09-04T05:45:44.382Z,56.70
2017-09-04T05:48:11.861Z,56.70
2017-09-04T05:50:39.318Z,56.70
2017-09-04T05:53:06.814Z,56.50
2017-09-04T05:55:34.282Z,56.40
2017-09-04T05:58:01.806Z,56.30
2017-09-04T06:00:29.324Z,56.20
2017-09-04T06:02:56.790Z,56.20
2017-09-04T06:05:24.268Z,56.70
2017-09-04T06:07:51.726Z,56.00
2017-09-04T06:10:19.225Z,56.50
2017-09-04T06:12:46.683Z,55.80
2017-09-04T06:15:14.171Z,55.70
2017-09-04T06:17:41.625Z,55.50
2017-09-04T06:20:10.009Z,55.50
2017-09-04T06:22:37.502Z,55.40
2017-09-04T06:25:04.966Z,55.50
2017-09-04T06:27:32.442Z,55.40
2017-09-04T06:29:59.906Z,55.40
2017-09-04T06:32:27.385Z,55.40
2017-09-04T06:34:54.848Z,55.30
2017-09-04T06:37:22.326Z,55.40
2017-09-04T06:39:49.789Z,55.40
2017-09-04T06:42:17.277Z,55.40
2017-09-04T06:44:44.733Z,55.50
2017-09-04T06:47:12.194Z,55.60
2017-09-04T06:49:39.747Z,55.60
2017-09-04T06:52:07.204Z,55.70
2017-09-04T06:54:34.670Z,55.70
2017-09-04T06:57:02.147Z,55.80
2017-09-04T06:59:29.625Z,55.70
2017-09-04T07:01:57.098Z,55.70
2017-09-04T07:04:24.563Z,55.80
2017-09-04T07:06:52.038Z,55.80
2017-09-04T07:09:19.518Z,55.70
2017-09-04T07:11:47.037Z,55.60
2017-09-04T07:14:14.497Z,55.50
2017-09-04T07:16:41.957Z,55.40
2017-09-04T07:19:09.446Z,55.20
2017-09-04T07:21:36.909Z,55.10
2017-09-04T07:24:04.362Z,55.00
2017-09-04T07:26:31.853Z,55.00
2017-09-04T07:28:59.309Z,54.90
2017-09-04T07:31:26.770Z,54.80
2017-09-04T07:33:54.264Z,54.70
2017-09-04T07:36:21.715Z,54.60
2017-09-04T07:38:49.173Z,54.70
2017-09-04T07:41:16.661Z,54.70
2017-09-04T07:43:44.121Z,54.70
2017-09-04T07:46:11.586Z,54.60
2017-09-04T07:48:39.121Z,54.70
2017-09-04T07:51:06.593Z,54.70
2017-09-04T07:53:34.089Z,54.80
2017-09-04T07:56:01.542Z,54.90
2017-09-04T07:58:28.998Z,55.00
2017-09-04T08:00:56.486Z,55.10
2017-09-04T08:03:23.961Z,55.10
2017-09-04T08:05:51.450Z,55.10
2017-09-04T08:08:18.910Z,55.10
2017-09-04T08:10:46.388Z,55.20
2017-09-04T08:13:13.875Z,55.20
2017-09-04T08:15:41.325Z,55.00
2017-09-04T08:18:08.773Z,55.00
2017-09-04T08:20:36.250Z,55.50
2017-09-04T08:23:03.717Z,54.90
2017-09-04T08:25:31.210Z,55.00
2017-09-04T08:27:58.670Z,54.70
2017-09-04T08:30:26.129Z,54.70
2017-09-04T08:32:53.625Z,54.50
2017-09-04T08:35:21.081Z,54.30
2017-09-04T08:37:48.546Z,54.40
2017-09-04T08:40:16.136Z,54.30
2017-09-04T08:42:43.594Z,54.20
2017-09-04T08:45:11.077Z,54.10
2017-09-04T08:47:38.537Z,53.90
2017-09-04T08:50:06.034Z,53.80
2017-09-04T08:52:33.491Z,53.80
2017-09-04T08:55:00.958Z,53.90
2017-09-04T08:57:28.533Z,53.80
2017-09-04T08:59:55.990Z,53.70
2017-09-04T09:02:23.458Z,54.60
2017-09-04T09:04:50.938Z,53.80
2017-09-04T09:07:18.393Z,53.50
2017-09-04T09:09:45.864Z,52.90
2017-09-04T09:12:13.345Z,53.10
2017-09-04T09:14:40.808Z,53.30
2017-09-04T09:17:08.305Z,53.20
2017-09-04T09:19:36.537Z,52.80
2017-09-04T09:22:03.992Z,52.80
2017-09-04T09:24:31.474Z,52.30
2017-09-04T09:26:58.974Z,52.30
2017-09-04T09:29:26.442Z,52.40
2017-09-04T09:31:53.906Z,51.70
2017-09-04T09:34:21.402Z,51.20
2017-09-04T09:36:48.866Z,50.50
2017-09-04T09:39:16.345Z,50.50
2017-09-04T09:41:43.794Z,50.40
2017-09-04T09:44:11.397Z,50.40
2017-09-04T09:46:38.857Z,50.40
2017-09-04T09:49:06.318Z,50.10
2017-09-04T09:51:33.819Z,50.10
2017-09-04T09:54:01.270Z,50.40
2017-09-04T09:56:28.727Z,50.00
2017-09-04T09:58:56.207Z,49.80
2017-09-04T10:01:23.673Z,49.10
2017-09-04T10:03:51.129Z,49.30
2017-09-04T10:06:18.611Z,49.50
2017-09-04T10:08:46.141Z,48.90
2017-09-04T10:11:14.385Z,48.30
2017-09-04T10:13:42.765Z,48.30
2017-09-04T10:16:10.233Z,47.30
2017-09-04T10:18:37.709Z,47.30
2017-09-04T10:21:06.045Z,47.00
2017-09-04T10:23:33.512Z,47.00
2017-09-04T10:26:01.005Z,46.70
2017-09-04T10:28:29.329Z,46.80
2017-09-04T10:30:56.830Z,46.80
2017-09-04T10:33:24.298Z,46.70
2017-09-04T10:35:51.762Z,46.70
2017-09-04T10:38:19.341Z,46.60
2017-09-04T10:40:46.822Z,46.40
2017-09-04T10:43:14.301Z,46.40
2017-09-04T10:45:41.793Z,46.30
2017-09-04T10:48:09.291Z,46.20
2017-09-04T10:50:36.758Z,46.00
2017-09-04T10:53:04.220Z,45.90
2017-09-04T10:55:31.806Z,45.90
2017-09-04T10:57:59.328Z,45.50
2017-09-04T11:00:26.889Z,45.10
2017-09-04T11:02:54.350Z,45.20
2017-09-04T11:05:21.809Z,44.50
2017-09-04T11:07:49.410Z,44.60
2017-09-04T11:10:16.865Z,44.20
2017-09-04T11:12:44.319Z,43.60
2017-09-04T11:15:12.090Z,44.20
2017-09-04T11:17:39.542Z,44.00
2017-09-04T11:20:07.002Z,43.60
2017-09-04T11:22:34.485Z,43.60
2017-09-04T11:25:01.943Z,43.70
2017-09-04T11:27:29.405Z,43.60
2017-09-04T11:29:57.818Z,43.40
2017-09-04T11:32:25.267Z,43.30
2017-09-04T11:34:52.725Z,43.20
2017-09-04T11:37:20.198Z,42.90
2017-09-04T11:39:47.670Z,42.50
2017-09-04T11:42:15.141Z,42.20
2017-09-04T11:44:42.604Z,42.20
2017-09-04T11:47:10.098Z,42.10
2017-09-04T11:49:37.553Z,42.30
2017-09-04T11:52:05.001Z,42.00
2017-09-04T11:54:32.475Z,42.10
2017-09-04T11:56:59.923Z,41.70
2017-09-04T11:59:27.523Z,41.60
2017-09-04T12:01:54.978Z,41.40
2017-09-04T12:04:22.438Z,41.60
2017-09-04T12:06:49.905Z,41.70
2017-09-04T12:09:17.373Z,41.30
2017-09-04T12:11:44.822Z,39.90
2017-09-04T12:14:12.306Z,39.30
2017-09-04T12:16:39.766Z,39.70
2017-09-04T12:19:07.213Z,39.90
2017-09-04T12:21:34.685Z,40.00
2017-09-04T12:24:02.144Z,39.60
2017-09-04T12:26:29.608Z,39.60
2017-09-04T12:28:57.121Z,39.50
2017-09-04T12:31:24.567Z,38.70
2017-09-04T12:33:52.022Z,38.30
2017-09-04T12:36:19.498Z,39.00
2017-09-04T12:38:47.150Z,38.90
2017-09-04T12:41:14.617Z,38.60
2017-09-04T12:43:42.077Z,38.20
2017-09-04T12:46:09.550Z,38.30
2017-09-04T12:48:37.013Z,38.10
2017-09-04T12:51:04.496Z,37.90
2017-09-04T12:53:31.953Z,37.70
2017-09-04T12:55:59.430Z,37.40
2017-09-04T12:58:26.902Z,37.10
2017-09-04T13:00:54.361Z,37.20
2017-09-04T13:03:21.844Z,36.30
2017-09-04T13:05:49.310Z,36.70
2017-09-04T13:08:16.948Z,36.80
2017-09-04T13:10:50.129Z,36.30
2017-09-04T13:13:23.278Z,35.60
2017-09-04T13:15:56.353Z,35.30
2017-09-04T13:21:41.279Z,35.50
2017-09-04T13:27:28.549Z,34.90
2017-09-04T13:33:02.702Z,34.20
2017-09-04T13:35:35.745Z,34.50
2017-09-04T13:38:03.226Z,33.80
2017-09-04T13:40:32.112Z,32.50
2017-09-04T13:42:59.563Z,31.30
2017-09-04T13:45:32.606Z,30.00
2017-09-04T13:48:05.653Z,28.60
2017-09-04T13:50:51.921Z,27.40
2017-09-04T13:53:25.202Z,26.80
2017-09-04T13:59:01.902Z,23.70
2017-09-04T14:01:34.933Z,23.20
2017-09-04T14:04:07.945Z,22.40
2017-09-04T14:09:56.918Z,21.50
2017-09-04T14:12:30.078Z,21.90
2017-09-04T14:15:03.138Z,22.40
2017-09-04T14:17:36.206Z,22.40
2017-09-04T14:20:03.778Z,22.20
2017-09-04T14:22:31.234Z,23.00
2017-09-04T14:24:58.696Z,23.60
2017-09-04T14:27:26.163Z,24.60
2017-09-04T14:29:53.609Z,24.10
2017-09-04T14:32:21.093Z,23.80
2017-09-04T14:34:48.563Z,23.20
2017-09-04T14:37:16.029Z,23.10
2017-09-04T14:39:43.602Z,23.20
2017-09-04T14:42:11.062Z,23.30
2017-09-04T14:44:38.543Z,23.10
2017-09-04T14:47:05.994Z,23.20
2017-09-04T14:49:33.476Z,23.00
2017-09-04T14:52:00.930Z,23.00
2017-09-04T14:54:28.377Z,23.80
2017-09-04T14:56:55.870Z,23.90
2017-09-04T14:59:23.322Z,24.50
2017-09-04T15:01:50.780Z,25.20
2017-09-04T15:04:18.253Z,25.40
2017-09-04T15:06:45.724Z,25.80
2017-09-04T15:09:13.183Z,26.10
2017-09-04T15:11:40.655Z,25.30
2017-09-04T15:14:08.258Z,25.30
2017-09-04T15:16:35.709Z,25.20
2017-09-04T15:19:03.166Z,24.80
2017-09-04T15:21:30.657Z,24.30
2017-09-04T15:23:58.106Z,24.40
2017-09-04T15:26:25.558Z,25.30
2017-09-04T15:28:53.038Z,25.50
2017-09-04T15:31:20.521Z,25.80
2017-09-04T15:33:47.973Z,25.80
2017-09-04T15:36:15.429Z,25.30
2017-09-04T15:38:42.917Z,25.50
2017-09-04T15:41:10.369Z,26.30
2017-09-04T15:43:37.826Z,27.00
2017-09-04T15:46:05.301Z,27.50
2017-09-04T15:48:33.080Z,28.20
2017-09-04T15:51:00.533Z,28.60
2017-09-04T15:53:27.986Z,28.90
2017-09-04T15:55:55.505Z,29.20
2017-09-04T15:58:23.040Z,29.60
2017-09-04T16:00:50.562Z,30.00
2017-09-04T16:03:18.057Z,30.30
2017-09-04T16:05:49.980Z,30.70
2017-09-04T16:08:20.031Z,31.00
2017-09-04T16:10:47.514Z,31.50
2017-09-04T16:13:16.654Z,32.50
2017-09-04T16:15:47.075Z,32.50
2017-09-04T16:21:33.128Z,33.30
2017-09-04T16:27:12.240Z,34.20
2017-09-04T16:33:06.066Z,35.00
2017-09-04T16:35:38.320Z,35.40
2017-09-04T16:38:06.570Z,35.70
2017-09-04T16:40:34.047Z,35.90
2017-09-04T16:46:26.718Z,36.40
2017-09-04T16:48:56.647Z,36.50
2017-09-04T16:51:36.786Z,36.60
2017-09-04T16:54:10.030Z,36.80
2017-09-04T16:59:39.621Z,37.40
2017-09-04T17:02:07.090Z,37.40
2017-09-04T17:04:34.561Z,37.50
2017-09-04T17:07:02.002Z,37.50
2017-09-04T17:09:31.116Z,37.70
2017-09-04T17:12:02.473Z,38.00
2017-09-04T17:14:29.944Z,37.90
2017-09-04T17:17:01.357Z,37.90
2017-09-04T17:22:29.535Z,38.20
2017-09-04T17:24:57.018Z,38.10
2017-09-04T17:27:24.470Z,38.30
2017-09-04T17:29:51.933Z,38.40
2017-09-04T17:32:19.421Z,38.40
2017-09-04T17:34:46.905Z,38.50
2017-09-04T17:37:14.423Z,38.50
2017-09-04T17:39:41.874Z,38.70
2017-09-04T17:42:09.329Z,38.70
2017-09-04T17:44:37.338Z,38.80
2017-09-04T17:47:05.007Z,39.10
2017-09-04T17:49:32.674Z,39.40
2017-09-04T17:52:00.520Z,39.50
2017-09-04T17:54:28.142Z,39.70
2017-09-04T17:56:55.644Z,39.70
2017-09-04T17:59:23.262Z,39.90
2017-09-04T18:01:50.737Z,40.10
2017-09-04T18:04:18.320Z,40.30
2017-09-04T18:06:45.798Z,40.50
2017-09-04T18:09:13.290Z,40.70
2017-09-04T18:11:40.770Z,40.90
2017-09-04T18:14:08.225Z,41.10
2017-09-04T18:16:35.695Z,41.40
2017-09-04T18:19:03.200Z,41.80
2017-09-04T18:21:30.650Z,42.10
2017-09-04T18:23:58.129Z,42.40
2017-09-04T18:26:25.586Z,42.70
2017-09-04T18:28:53.059Z,42.90
2017-09-04T18:31:20.509Z,43.10
2017-09-04T18:33:48.013Z,43.20
2017-09-04T18:36:15.532Z,43.50
2017-09-04T18:38:43.137Z,43.60
2017-09-04T18:41:10.975Z,43.80
2017-09-04T18:43:38.450Z,44.10
2017-09-04T18:46:05.924Z,44.20
2017-09-04T18:48:33.483Z,44.40
2017-09-04T18:51:00.945Z,44.60
2017-09-04T18:53:29.189Z,44.90
2017-09-04T18:55:56.758Z,45.00
2017-09-04T18:58:24.350Z,45.20
2017-09-04T19:00:52.016Z,45.30
2017-09-04T19:03:20.375Z,45.60
2017-09-04T19:05:47.833Z,45.60
2017-09-04T19:08:15.330Z,45.80
2017-09-04T19:10:42.877Z,45.80
2017-09-04T19:13:10.355Z,46.00
2017-09-04T19:15:37.810Z,46.20
2017-09-04T19:18:05.280Z,46.50
2017-09-04T19:20:32.746Z,46.60
2017-09-04T19:23:00.224Z,46.80
2017-09-04T19:25:27.691Z,46.90
2017-09-04T19:27:55.136Z,46.90
2017-09-04T19:30:22.621Z,46.90
2017-09-04T19:32:50.080Z,47.10
2017-09-04T19:35:17.805Z,47.80
2017-09-04T19:37:45.257Z,47.50
2017-09-04T19:40:12.710Z,47.70
2017-09-04T19:42:40.298Z,47.90
2017-09-04T19:45:07.798Z,48.00
2017-09-04T19:47:35.273Z,48.20
2017-09-04T19:50:02.797Z,48.30
2017-09-04T19:52:30.290Z,48.30
2017-09-04T19:54:57.751Z,48.60
2017-09-04T19:57:25.195Z,48.50
2017-09-04T19:59:52.675Z,48.60
2017-09-04T20:02:20.137Z,48.80
2017-09-04T20:04:47.657Z,49.00
2017-09-04T20:07:15.132Z,49.10
2017-09-04T20:09:42.588Z,49.30
2017-09-04T20:12:10.089Z,49.40
2017-09-04T20:14:37.544Z,49.50
2017-09-04T20:17:05.004Z,49.60
2017-09-04T20:19:32.514Z,49.80
2017-09-04T20:22:00.731Z,50.00
2017-09-04T20:24:28.209Z,50.00
2017-09-04T20:26:55.649Z,50.00
2017-09-04T20:29:23.126Z,50.10
2017-09-04T20:31:50.581Z,50.10
2017-09-04T20:34:18.055Z,50.20
2017-09-04T20:36:45.499Z,50.40
2017-09-04T20:39:12.977Z,50.40
2017-09-04T20:41:40.457Z,50.60
2017-09-04T20:44:07.942Z,50.70
2017-09-04T20:46:35.398Z,50.70
2017-09-04T20:49:02.852Z,50.80
2017-09-04T20:51:30.325Z,51.00
2017-09-04T20:53:57.813Z,51.10
2017-09-04T20:56:25.269Z,51.30
2017-09-04T20:58:52.725Z,51.30
2017-09-04T21:01:20.192Z,51.40
2017-09-04T21:03:47.657Z,51.60
2017-09-04T21:06:15.141Z,51.70
2017-09-04T21:08:42.597Z,51.80
2017-09-04T21:11:10.057Z,51.90
2017-09-04T21:13:37.526Z,51.90
2017-09-04T21:16:04.997Z,52.00
2017-09-04T21:18:32.514Z,52.00
2017-09-04T21:20:59.982Z,52.00
2017-09-04T21:23:27.470Z,52.00
2017-09-04T21:25:54.922Z,52.10
2017-09-04T21:28:22.361Z,52.10
2017-09-04T21:30:49.854Z,52.30
2017-09-04T21:33:17.297Z,52.20
2017-09-04T21:35:44.741Z,52.20
2017-09-04T21:38:12.217Z,52.30
2017-09-04T21:40:39.666Z,52.40
2017-09-04T21:43:07.142Z,52.40
2017-09-04T21:45:34.593Z,52.50
2017-09-04T21:48:02.045Z,52.50
2017-09-04T21:50:29.530Z,52.60
2017-09-04T21:52:56.972Z,52.70
2017-09-04T21:55:24.428Z,52.70
2017-09-04T21:57:51.900Z,52.80
2017-09-04T22:00:19.362Z,52.80
2017-09-04T22:02:46.850Z,52.90
2017-09-04T22:05:14.302Z,53.00
2017-09-04T22:07:41.757Z,53.10
2017-09-04T22:10:09.353Z,53.20
2017-09-04T22:12:36.796Z,53.20
2017-09-04T22:15:05.041Z,53.30
2017-09-04T22:17:32.502Z,53.30
2017-09-04T22:19:59.983Z,53.30
2017-09-04T22:22:27.452Z,53.50
2017-09-04T22:24:54.909Z,53.60
2017-09-04T22:27:22.378Z,53.60
2017-09-04T22:29:49.858Z,53.60
2017-09-04T22:32:17.321Z,53.60
2017-09-04T22:34:44.802Z,54.20
2017-09-04T22:37:12.282Z,53.70
2017-09-04T22:39:39.869Z,53.90
2017-09-04T22:42:07.321Z,53.80
2017-09-04T22:44:34.811Z,53.90
2017-09-04T22:47:02.261Z,53.90
2017-09-04T22:49:29.714Z,54.20
2017-09-04T22:51:57.210Z,54.20
2017-09-04T22:54:24.660Z,54.30
2017-09-04T22:56:52.114Z,54.90
2017-09-04T22:59:19.593Z,54.40
2017-09-04T23:01:47.089Z,54.60
2017-09-04T23:04:14.549Z,54.80
2017-09-04T23:06:42.006Z,55.00
2017-09-04T23:09:09.571Z,55.50
2017-09-04T23:11:37.053Z,55.10
2017-09-04T23:14:04.537Z,55.20
2017-09-04T23:16:31.994Z,55.20
2017-09-04T23:18:59.481Z,55.10
2017-09-04T23:21:26.978Z,55.20
2017-09-04T23:23:54.441Z,55.30
2017-09-04T23:26:21.901Z,55.40
2017-09-04T23:28:49.376Z,55.40
2017-09-04T23:31:16.850Z,55.50
2017-09-04T23:33:44.317Z,55.70
2017-09-04T23:36:11.813Z,55.70
2017-09-04T23:38:39.354Z,55.80
2017-09-04T23:41:06.812Z,55.80
2017-09-04T23:43:34.284Z,55.90
2017-09-04T23:46:01.763Z,55.90
2017-09-04T23:48:29.238Z,56.00
2017-09-04T23:50:56.702Z,56.10
2017-09-04T23:53:24.182Z,56.10
2017-09-04T23:55:51.646Z,56.10
2017-09-04T23:58:19.126Z,56.40
